Virgem Santissima — CUEQ4 — position and weather

sailwx.info

Track history (hours):
 
Tides and Currents Weather Stations Pressure Air Temp Water Temp Dewpoint Dewpoint Depression Visibility Wind Speed Wind Dir Waves Ship Positions

Virgem Santissima

Last reported at 2018-Jul-19 10:20 UTC. Time now 2018-Jul-22 04:56 UTC.
Position N 41°14' W 008°45'.

Length 24 m.

Type: Fishing. MMSI: 263411270.

Date/timePositionNaut miles runAvg speedWind from/ knotsBaromVisibWave heightAir tempDewpointWater temp
2018-Jul-19 10:20N 41°14' W 008°45'411.5
2018-Jul-19 10:00N 41°10' W 008°43'1 1.4
2018-Jul-19 09:30N 41°11' W 008°42'0 0.0
2018-Jul-19 09:00N 41°11' W 008°42'0 0.0
2018-Jul-19 08:30N 41°11' W 008°42'3 5.6
2018-Jul-19 08:00N 41°08' W 008°43'1 0.1
2018-Jul-18 22:10N 41°08' W 008°44'2 9.9
2018-Jul-18 22:00N 41°09' W 008°43'2 4.0
2018-Jul-18 21:30N 41°11' W 008°42'0 0.0
2018-Jul-18 08:55N 41°11' W 008°42'3 6.3
2018-Jul-18 08:30N 41°08' W 008°42'  
2018-Jul-13 11:16N 41°13' W 008°45'311.4
2018-Jul-13 11:00N 41°11' W 008°43'1 1.8
2018-Jul-13 10:30N 41°11' W 008°42'0 0.0
2018-Jul-13 10:00N 41°11' W 008°42'0 0.0
2018-Jul-13 09:30N 41°11' W 008°42'0 0.0
2018-Jul-13 09:00N 41°11' W 008°42'3 5.7
2018-Jul-13 08:30N 41°13' W 008°45'1 0.0
2018-Jul-12 02:11N 41°14' W 008°45'1 8.3
2018-Jul-12 02:01N 41°13' W 008°44'3 5.5
2018-Jul-12 01:30N 41°11' W 008°42'0 0.0
2018-Jul-12 01:00N 41°11' W 008°42'0 0.0
2018-Jul-12 00:30N 41°11' W 008°42'0 0.0
2018-Jul-12 00:00N 41°11' W 008°42'0 0.0
2018-Jul-11 23:30N 41°11' W 008°42'0 0.0
2018-Jul-11 23:00N 41°11' W 008°42'0 0.0
2018-Jul-11 22:30N 41°11' W 008°42'0 0.0
2018-Jul-11 22:00N 41°11' W 008°42'0 0.0
2018-Jul-11 10:23N 41°11' W 008°42'0 0.1
2018-Jul-11 10:00N 41°11' W 008°42'0 0.0
2018-Jul-11 09:30N 41°11' W 008°42'0 0.0
2018-Jul-11 09:00N 41°11' W 008°42'0 0.0
2018-Jul-11 08:30N 41°11' W 008°42'0 0.0
2018-Jul-11 08:00N 41°11' W 008°42'0 0.0
2018-Jul-11 07:30N 41°11' W 008°42'0 0.0
2018-Jul-11 07:00N 41°11' W 008°42'0 0.6
2018-Jul-11 06:30N 41°11' W 008°42'510.4
2018-Jul-11 06:00N 41°06' W 008°46'3 0.4
2018-Jul-10 22:03N 41°08' W 008°43'0 9.2
2018-Jul-10 22:01N 41°09' W 008°43'2 0.2
2018-Jul-10 11:50N 41°11' W 008°42'0 0.0
2018-Jul-10 11:30N 41°11' W 008°42'0 0.0
2018-Jul-10 11:01N 41°11' W 008°42'0 0.0
2018-Jul-10 10:31N 41°11' W 008°42'0 0.0
2018-Jul-10 10:00N 41°11' W 008°42'0 0.0
2018-Jul-10 09:30N 41°11' W 008°42'2 3.9
2018-Jul-10 09:00N 41°12' W 008°44'2 3.1
2018-Jul-10 08:30N 41°13' W 008°46'0 0.8
2018-Jul-10 07:55N 41°13' W 008°46'0 0.7
2018-Jul-10 07:30N 41°13' W 008°46'0 0.4
2018-Jul-10 06:54N 41°13' W 008°47'0 0.1
2018-Jul-10 06:30N 41°13' W 008°47'3 5.4
2018-Jul-10 06:00N 41°11' W 008°48'4 0.6
2018-Jul-09 22:16N 41°08' W 008°44'2 9.3
2018-Jul-09 22:00N 41°10' W 008°42'  
Track history (hours):
 
Tides and Currents Weather Stations Pressure Air Temp Water Temp Dewpoint Dewpoint Depression Visibility Wind Speed Wind Dir Waves Ship Positions

Virgem Santissima

Last reported at 2018-Jul-19 10:20 UTC. Time now 2018-Jul-22 04:56 UTC.
Position N 41°14' W 008°45'.

Length 24 m.

Type: Fishing. MMSI: 263411270.

Date/timePositionNaut miles runAvg speedWind from/ knotsBaromVisibWave heightAir tempDewpointWater temp
2018-Jul-19 10:20N 41°14' W 008°45'411.5
2018-Jul-19 10:00N 41°10' W 008°43'1 1.4
2018-Jul-19 09:30N 41°11' W 008°42'0 0.0
2018-Jul-19 09:00N 41°11' W 008°42'0 0.0
2018-Jul-19 08:30N 41°11' W 008°42'3 5.6
2018-Jul-19 08:00N 41°08' W 008°43'1 0.1
2018-Jul-18 22:10N 41°08' W 008°44'2 9.9
2018-Jul-18 22:00N 41°09' W 008°43'2 4.0
2018-Jul-18 21:30N 41°11' W 008°42'0 0.0
2018-Jul-18 08:55N 41°11' W 008°42'3 6.3
2018-Jul-18 08:30N 41°08' W 008°42'  
2018-Jul-13 11:16N 41°13' W 008°45'311.4
2018-Jul-13 11:00N 41°11' W 008°43'1 1.8
2018-Jul-13 10:30N 41°11' W 008°42'0 0.0
2018-Jul-13 10:00N 41°11' W 008°42'0 0.0
2018-Jul-13 09:30N 41°11' W 008°42'0 0.0
2018-Jul-13 09:00N 41°11' W 008°42'3 5.7
2018-Jul-13 08:30N 41°13' W 008°45'1 0.0
2018-Jul-12 02:11N 41°14' W 008°45'1 8.3
2018-Jul-12 02:01N 41°13' W 008°44'3 5.5
2018-Jul-12 01:30N 41°11' W 008°42'0 0.0
2018-Jul-12 01:00N 41°11' W 008°42'0 0.0
2018-Jul-12 00:30N 41°11' W 008°42'0 0.0
2018-Jul-12 00:00N 41°11' W 008°42'0 0.0
2018-Jul-11 23:30N 41°11' W 008°42'0 0.0
2018-Jul-11 23:00N 41°11' W 008°42'0 0.0
2018-Jul-11 22:30N 41°11' W 008°42'0 0.0
2018-Jul-11 22:00N 41°11' W 008°42'0 0.0
2018-Jul-11 10:23N 41°11' W 008°42'0 0.1
2018-Jul-11 10:00N 41°11' W 008°42'0 0.0
2018-Jul-11 09:30N 41°11' W 008°42'0 0.0
2018-Jul-11 09:00N 41°11' W 008°42'0 0.0
2018-Jul-11 08:30N 41°11' W 008°42'0 0.0
2018-Jul-11 08:00N 41°11' W 008°42'0 0.0
2018-Jul-11 07:30N 41°11' W 008°42'0 0.0
2018-Jul-11 07:00N 41°11' W 008°42'0 0.6
2018-Jul-11 06:30N 41°11' W 008°42'510.4
2018-Jul-11 06:00N 41°06' W 008°46'3 0.4
2018-Jul-10 22:03N 41°08' W 008°43'0 9.2
2018-Jul-10 22:01N 41°09' W 008°43'2 0.2
2018-Jul-10 11:50N 41°11' W 008°42'0 0.0
2018-Jul-10 11:30N 41°11' W 008°42'0 0.0
2018-Jul-10 11:01N 41°11' W 008°42'0 0.0
2018-Jul-10 10:31N 41°11' W 008°42'0 0.0
2018-Jul-10 10:00N 41°11' W 008°42'0 0.0
2018-Jul-10 09:30N 41°11' W 008°42'2 3.9
2018-Jul-10 09:00N 41°12' W 008°44'2 3.1
2018-Jul-10 08:30N 41°13' W 008°46'0 0.8
2018-Jul-10 07:55N 41°13' W 008°46'0 0.7
2018-Jul-10 07:30N 41°13' W 008°46'0 0.4
2018-Jul-10 06:54N 41°13' W 008°47'0 0.1
2018-Jul-10 06:30N 41°13' W 008°47'3 5.4
2018-Jul-10 06:00N 41°11' W 008°48'4 0.6
2018-Jul-09 22:16N 41°08' W 008°44'2 9.3
2018-Jul-09 22:00N 41°10' W 008°42'  

Dump ship's entire track history